Ust' Kalmanka, Russia
Current Conditions -  °F | °C
As of 9:00 AM on Saturday 20 Dec 2014 (Local Time) from UNBB Reporting Station
Smoke Smoke  
Wind Chill: -18°   Ceiling: Unl
Heat Index: -18°   Visibility: 2.3mi
Dew Point: -21°   Wind: 2mph
Humidity: 78%   Direction: NA
Pressure: 30.48"   Gusts: NA
Location:  52.12°N, 83.32°E
Report Text: UNBB 200200Z VRB01MPS 3700 BR FU FEW006 M18/M21 Q1032 NOSIG RMKQBB180 QFE752/1002 24420357
Loading
Personal Weather Stations






























Interactive Weather Map New forecast layout! Learn more

10-Day Weather Forecast

Advertisements
Track Severe Weather on mobile